createdAt,value
2018-09-23T00:02:44.050Z,82.76
2018-09-23T00:07:47.134Z,82.67
2018-09-23T00:12:50.216Z,82.88
2018-09-23T00:17:53.283Z,82.54
2018-09-23T00:22:56.403Z,83.16
2018-09-23T00:27:59.497Z,82.53
2018-09-23T00:33:02.559Z,82.86
2018-09-23T00:38:05.611Z,82.77
2018-09-23T00:43:08.719Z,82.86
2018-09-23T00:48:11.783Z,82.48
2018-09-23T00:53:14.847Z,82.79
2018-09-23T00:58:17.926Z,82.49
2018-09-23T01:03:21.033Z,82.21
2018-09-23T01:08:24.106Z,82.24
2018-09-23T01:13:27.155Z,82.45
2018-09-23T01:18:30.184Z,82.11
2018-09-23T01:23:33.261Z,82.40
2018-09-23T01:34:11.750Z,82.17
2018-09-23T01:45:00.090Z,82.31
2018-09-23T01:50:03.162Z,82.43
2018-09-23T01:55:06.243Z,82.12
2018-09-23T02:00:09.306Z,81.54
2018-09-23T02:05:12.328Z,81.54
2018-09-23T02:10:15.451Z,81.72
2018-09-23T02:15:18.518Z,81.38
2018-09-23T02:20:21.683Z,81.46
2018-09-23T02:25:24.714Z,81.49
2018-09-23T02:30:27.830Z,81.54
2018-09-23T02:35:30.899Z,81.82
2018-09-23T02:40:33.929Z,81.79
2018-09-23T02:45:36.982Z,81.22
2018-09-23T02:50:40.031Z,81.54
2018-09-23T02:55:43.079Z,81.66
2018-09-23T03:00:46.170Z,81.45
2018-09-23T03:05:49.327Z,81.92
2018-09-23T03:10:52.537Z,81.91
2018-09-23T03:15:55.585Z,82.09
2018-09-23T03:20:58.675Z,81.88
2018-09-23T03:26:01.782Z,81.49
2018-09-23T03:31:04.854Z,81.34
2018-09-23T03:36:08.091Z,82.14
2018-09-23T03:41:11.122Z,81.99
2018-09-23T03:46:14.520Z,81.48
2018-09-23T03:51:17.602Z,81.47
2018-09-23T03:56:20.716Z,81.78
2018-09-23T04:01:23.786Z,81.79
2018-09-23T04:06:26.846Z,81.63
2018-09-23T04:11:29.907Z,81.37
2018-09-23T04:16:33.115Z,81.37
2018-09-23T04:21:36.219Z,81.96
2018-09-23T04:26:39.301Z,81.47
2018-09-23T04:31:42.372Z,82.15
2018-09-23T04:36:45.444Z,82.32
2018-09-23T04:41:48.562Z,81.89
2018-09-23T04:46:51.632Z,82.21
2018-09-23T04:51:54.734Z,82.01
2018-09-23T04:56:57.813Z,81.46
2018-09-23T05:02:01.980Z,81.31
2018-09-23T05:07:05.158Z,81.27
2018-09-23T05:12:08.262Z,82.07
2018-09-23T05:17:11.345Z,82.15
2018-09-23T05:22:14.528Z,81.97
2018-09-23T05:27:17.605Z,81.99
2018-09-23T05:32:20.782Z,82.03
2018-09-23T05:37:23.980Z,81.67
2018-09-23T05:42:27.815Z,81.75
2018-09-23T05:47:31.124Z,81.69
2018-09-23T05:52:34.271Z,81.40
2018-09-23T05:57:37.378Z,81.34
2018-09-23T06:02:40.602Z,80.73
2018-09-23T06:07:43.664Z,80.74
2018-09-23T06:12:46.772Z,80.01
2018-09-23T06:17:49.830Z,79.59
2018-09-23T06:22:52.926Z,79.20
2018-09-23T06:27:56.121Z,78.60
2018-09-23T06:32:59.279Z,78.27
2018-09-23T06:38:02.396Z,78.25
2018-09-23T06:43:05.527Z,78.87
2018-09-23T06:48:08.722Z,78.28
2018-09-23T06:53:11.806Z,77.83
2018-09-23T06:58:14.981Z,78.19
2018-09-23T07:03:18.071Z,78.24
2018-09-23T07:08:21.246Z,77.76
2018-09-23T07:13:24.438Z,77.61
2018-09-23T07:18:27.626Z,77.36
2018-09-23T07:23:33.228Z,76.83
2018-09-23T07:28:36.382Z,76.09
2018-09-23T07:33:39.488Z,76.08
2018-09-23T07:38:42.709Z,75.99
2018-09-23T07:43:46.095Z,75.80
2018-09-23T07:48:49.174Z,75.30
2018-09-23T07:53:52.247Z,75.20
2018-09-23T07:58:55.362Z,75.87
2018-09-23T08:03:58.413Z,76.30
2018-09-23T08:09:01.601Z,76.06
2018-09-23T08:14:05.181Z,75.59
2018-09-23T08:19:08.357Z,74.73
2018-09-23T08:24:11.398Z,75.64
2018-09-23T08:29:14.482Z,75.78
2018-09-23T08:34:17.575Z,76.06
2018-09-23T08:39:20.847Z,76.60
2018-09-23T08:44:23.965Z,76.14
2018-09-23T08:49:26.998Z,76.24
2018-09-23T08:54:30.059Z,75.36
2018-09-23T08:59:33.227Z,75.19
2018-09-23T09:04:36.307Z,74.71
2018-09-23T09:09:39.424Z,75.34
2018-09-23T09:14:42.726Z,75.24
2018-09-23T09:19:46.791Z,76.33
2018-09-23T09:24:49.897Z,76.02
2018-09-23T09:29:53.036Z,76.82
2018-09-23T09:34:56.188Z,78.55
2018-09-23T09:39:59.335Z,78.64
2018-09-23T09:45:03.166Z,78.76
2018-09-23T09:50:06.489Z,78.76
2018-09-23T09:55:09.576Z,78.83
2018-09-23T10:00:12.679Z,80.06
2018-09-23T10:05:15.702Z,79.85
2018-09-23T10:10:19.285Z,79.68
2018-09-23T10:15:23.750Z,78.76
2018-09-23T10:20:27.934Z,78.69
2018-09-23T10:25:32.019Z,79.13
2018-09-23T10:30:35.744Z,79.63
2018-09-23T10:35:40.101Z,79.92
2018-09-23T10:40:43.910Z,81.25
2018-09-23T10:45:48.255Z,82.14
2018-09-23T10:50:52.857Z,82.07
2018-09-23T10:55:57.282Z,84.10
2018-09-23T11:01:01.599Z,85.15
2018-09-23T11:06:05.318Z,86.66
2018-09-23T11:11:09.651Z,86.91
2018-09-23T11:16:13.851Z,86.04
2018-09-23T11:21:16.986Z,86.32
2018-09-23T11:26:20.399Z,85.67
2018-09-23T11:31:23.551Z,87.22
2018-09-23T11:36:26.985Z,87.29
2018-09-23T11:41:31.425Z,87.47
2018-09-23T11:46:35.122Z,87.43
2018-09-23T11:51:38.459Z,86.22
2018-09-23T11:56:42.617Z,86.84
2018-09-23T12:01:46.664Z,87.07
2018-09-23T12:06:50.789Z,87.05
2018-09-23T12:11:54.006Z,87.16
2018-09-23T12:16:57.149Z,86.30
2018-09-23T12:22:00.241Z,85.68
2018-09-23T12:27:03.386Z,86.41
2018-09-23T12:32:06.559Z,87.25
2018-09-23T12:37:09.817Z,87.89
2018-09-23T12:42:12.976Z,87.15
2018-09-23T12:47:16.206Z,87.23
2018-09-23T12:52:19.294Z,87.13
2018-09-23T12:57:22.414Z,88.49
2018-09-23T13:02:25.656Z,87.83
2018-09-23T13:07:28.743Z,87.54
2018-09-23T13:12:31.920Z,87.72
2018-09-23T13:17:35.142Z,85.56
2018-09-23T13:22:38.229Z,84.48
2018-09-23T13:27:41.314Z,84.30
2018-09-23T13:32:44.390Z,84.55
2018-09-23T13:37:47.464Z,85.66
2018-09-23T13:42:50.634Z,86.23
2018-09-23T13:47:53.725Z,86.14
2018-09-23T13:52:56.822Z,85.97
2018-09-23T13:57:59.883Z,87.32
2018-09-23T14:03:02.966Z,87.01
2018-09-23T14:08:05.927Z,86.85
2018-09-23T14:13:08.990Z,87.64
2018-09-23T14:18:12.091Z,87.32
2018-09-23T14:23:15.178Z,87.25
2018-09-23T14:28:18.254Z,86.89
2018-09-23T14:33:21.407Z,87.13
2018-09-23T14:38:24.517Z,86.79
2018-09-23T14:43:27.583Z,87.20
2018-09-23T14:48:30.778Z,86.19
2018-09-23T14:53:33.869Z,86.51
2018-09-23T14:58:36.999Z,86.86
2018-09-23T15:03:40.369Z,86.57
2018-09-23T15:08:43.456Z,86.36
2018-09-23T15:13:46.604Z,86.10
2018-09-23T15:18:49.774Z,86.03
2018-09-23T15:23:52.837Z,86.48
2018-09-23T15:28:55.897Z,85.79
2018-09-23T15:39:09.219Z,87.24
2018-09-23T15:44:13.185Z,86.75
2018-09-23T15:49:17.169Z,86.37
2018-09-23T15:54:20.287Z,86.35
2018-09-23T15:59:23.470Z,85.78
2018-09-23T16:04:26.672Z,85.94
2018-09-23T16:09:30.035Z,86.38
2018-09-23T16:14:33.110Z,86.00
2018-09-23T16:19:36.267Z,86.81
2018-09-23T16:24:39.390Z,86.46
2018-09-23T16:29:42.591Z,87.31
2018-09-23T16:34:45.813Z,87.06
2018-09-23T16:39:48.869Z,87.82
2018-09-23T16:44:51.922Z,87.32
2018-09-23T16:49:55.091Z,87.58
2018-09-23T16:54:58.221Z,87.58
2018-09-23T17:00:03.342Z,87.42
2018-09-23T17:05:06.403Z,87.62
2018-09-23T17:10:09.541Z,87.03
2018-09-23T17:15:12.693Z,87.47
2018-09-23T17:20:15.780Z,86.80
2018-09-23T17:25:18.883Z,87.00
2018-09-23T17:30:22.066Z,87.10
2018-09-23T17:35:25.199Z,87.62
2018-09-23T17:40:28.344Z,87.85
2018-09-23T17:45:31.455Z,87.36
2018-09-23T17:50:34.502Z,87.40
2018-09-23T17:55:37.696Z,87.43
2018-09-23T18:00:42.217Z,87.77
2018-09-23T18:05:45.389Z,86.88
2018-09-23T18:10:48.589Z,87.36
2018-09-23T18:15:51.686Z,87.32
2018-09-23T18:20:54.886Z,87.16
2018-09-23T18:25:57.981Z,86.78
2018-09-23T18:31:01.135Z,87.00
2018-09-23T18:36:04.245Z,87.23
2018-09-23T18:41:07.417Z,87.19
2018-09-23T18:46:10.530Z,86.55
2018-09-23T18:51:13.603Z,86.61
2018-09-23T18:56:17.491Z,86.42
2018-09-23T19:01:20.569Z,86.62
2018-09-23T19:06:23.634Z,86.46
2018-09-23T19:11:26.719Z,86.41
2018-09-23T19:16:31.934Z,86.21
2018-09-23T19:21:34.966Z,86.18
2018-09-23T19:26:37.981Z,87.02
2018-09-23T19:31:41.007Z,86.82
2018-09-23T19:36:44.017Z,87.45
2018-09-23T19:41:47.050Z,87.27
2018-09-23T19:46:50.298Z,87.14
2018-09-23T19:51:53.395Z,87.59
2018-09-23T19:56:56.459Z,87.53
2018-09-23T20:01:59.481Z,87.45
2018-09-23T20:07:02.622Z,87.01
2018-09-23T20:12:05.741Z,87.26
2018-09-23T20:17:08.854Z,87.57
2018-09-23T20:22:12.313Z,87.11
2018-09-23T20:32:59.949Z,87.03
2018-09-23T20:38:03.106Z,87.35
2018-09-23T20:43:06.130Z,86.90
2018-09-23T20:48:09.171Z,86.58
2018-09-23T20:53:12.197Z,87.05
2018-09-23T20:58:15.232Z,86.65
2018-09-23T21:03:18.299Z,86.41
2018-09-23T21:08:21.333Z,86.77
2018-09-23T21:13:24.361Z,87.03
2018-09-23T21:18:27.484Z,87.18
2018-09-23T21:23:30.547Z,86.69
2018-09-23T21:28:33.573Z,86.87
2018-09-23T21:33:36.620Z,86.44
2018-09-23T21:38:39.667Z,86.88
2018-09-23T21:43:42.690Z,86.43
2018-09-23T21:48:45.737Z,86.54
2018-09-23T21:53:48.769Z,86.73
2018-09-23T21:58:51.806Z,86.26
2018-09-23T22:03:55.211Z,86.38
2018-09-23T22:08:58.258Z,86.24
2018-09-23T22:14:01.301Z,85.70
2018-09-23T22:19:04.358Z,85.90
2018-09-23T22:24:07.380Z,85.40
2018-09-23T22:29:10.529Z,85.76
2018-09-23T22:34:13.566Z,85.41
2018-09-23T22:39:16.593Z,85.84
2018-09-23T22:44:19.666Z,85.30
2018-09-23T22:49:22.706Z,85.65
2018-09-23T22:54:25.765Z,84.72
2018-09-23T22:59:28.817Z,85.17
2018-09-23T23:04:31.857Z,85.30
2018-09-23T23:09:35.110Z,85.38
2018-09-23T23:14:38.119Z,84.70
2018-09-23T23:19:41.159Z,84.57
2018-09-23T23:24:44.173Z,84.08
2018-09-23T23:29:47.193Z,84.72
2018-09-23T23:34:50.212Z,84.34
2018-09-23T23:39:53.262Z,84.08
2018-09-23T23:44:56.329Z,83.70
2018-09-23T23:49:59.362Z,83.79
2018-09-23T23:55:02.502Z,82.59
